sensor_id;sensor_type;location;lat;lon;timestamp;pressure;altitude;pressure_sealevel;temperature;humidity
41513;BME280;27244;59.940;30.280;2023-04-26T00:02:23;100428.59;;;25.42;26.99
41513;BME280;27244;59.940;30.280;2023-04-26T00:04:52;100422.44;;;25.43;26.92
41513;BME280;27244;59.940;30.280;2023-04-26T00:07:21;100424.50;;;25.43;27.36
41513;BME280;27244;59.940;30.280;2023-04-26T00:09:49;100426.06;;;25.44;26.96
41513;BME280;27244;59.940;30.280;2023-04-26T00:12:17;100422.94;;;25.42;26.83
41513;BME280;27244;59.940;30.280;2023-04-26T00:14:44;100417.28;;;25.42;26.88
41513;BME280;27244;59.940;30.280;2023-04-26T00:17:11;100425.75;;;25.42;27.12
41513;BME280;27244;59.940;30.280;2023-04-26T00:19:37;100414.91;;;25.40;26.77
41513;BME280;27244;59.940;30.280;2023-04-26T00:22:05;100427.44;;;25.39;27.00
41513;BME280;27244;59.940;30.280;2023-04-26T00:24:33;100419.78;;;25.40;26.93
41513;BME280;27244;59.940;30.280;2023-04-26T00:27:02;100416.16;;;25.39;26.81
41513;BME280;27244;59.940;30.280;2023-04-26T00:29:33;100418.22;;;25.39;26.77
41513;BME280;27244;59.940;30.280;2023-04-26T00:32:00;100423.88;;;25.39;26.79
41513;BME280;27244;59.940;30.280;2023-04-26T00:34:31;100421.34;;;25.41;26.94
41513;BME280;27244;59.940;30.280;2023-04-26T00:36:58;100413.34;;;25.39;26.79
41513;BME280;27244;59.940;30.280;2023-04-26T00:39:25;100418.22;;;25.39;26.76
41513;BME280;27244;59.940;30.280;2023-04-26T00:41:52;100411.78;;;25.38;26.81
41513;BME280;27244;59.940;30.280;2023-04-26T00:44:21;100413.03;;;25.37;26.77
41513;BME280;27244;59.940;30.280;2023-04-26T00:46:48;100416.94;;;25.40;26.56
41513;BME280;27244;59.940;30.280;2023-04-26T00:49:23;100410.50;;;25.39;26.65
41513;BME280;27244;59.940;30.280;2023-04-26T00:51:51;100416.16;;;25.39;26.44
41513;BME280;27244;59.940;30.280;2023-04-26T00:54:19;100406.72;;;25.33;26.65
41513;BME280;27244;59.940;30.280;2023-04-26T00:56:47;100411.00;;;25.38;26.61
41513;BME280;27244;59.940;30.280;2023-04-26T00:59:17;100403.75;;;25.37;26.48
41513;BME280;27244;59.940;30.280;2023-04-26T01:01:46;100413.34;;;25.39;26.59
41513;BME280;27244;59.940;30.280;2023-04-26T01:04:14;100403.31;;;25.38;26.57
41513;BME280;27244;59.940;30.280;2023-04-26T01:06:41;100396.88;;;25.38;26.51
41513;BME280;27244;59.940;30.280;2023-04-26T01:09:08;100406.13;;;25.38;26.62
41513;BME280;27244;59.940;30.280;2023-04-26T01:11:39;100405.34;;;25.38;26.32
41513;BME280;27244;59.940;30.280;2023-04-26T01:14:09;100404.84;;;25.39;26.29
41513;BME280;27244;59.940;30.280;2023-04-26T01:16:37;100399.69;;;25.38;26.54
41513;BME280;27244;59.940;30.280;2023-04-26T01:19:10;100394.34;;;25.40;26.35
41513;BME280;27244;59.940;30.280;2023-04-26T01:21:38;100386.66;;;25.31;26.30
41513;BME280;27244;59.940;30.280;2023-04-26T01:24:08;100397.19;;;25.40;26.35
41513;BME280;27244;59.940;30.280;2023-04-26T01:26:37;100392.94;;;25.35;26.30
41513;BME280;27244;59.940;30.280;2023-04-26T01:29:15;100384.34;;;25.39;26.57
41513;BME280;27244;59.940;30.280;2023-04-26T01:31:43;100390.13;;;25.35;26.01
41513;BME280;27244;59.940;30.280;2023-04-26T01:34:11;100388.53;;;25.34;26.09
41513;BME280;27244;59.940;30.280;2023-04-26T01:36:38;100395.44;;;25.33;25.87
41513;BME280;27244;59.940;30.280;2023-04-26T01:39:05;100390.56;;;25.34;25.98
41513;BME280;27244;59.940;30.280;2023-04-26T01:41:34;100394.19;;;25.34;26.17
41513;BME280;27244;59.940;30.280;2023-04-26T01:44:01;100389.00;;;25.33;25.92
41513;BME280;27244;59.940;30.280;2023-04-26T01:46:29;100395.91;;;25.32;26.06
41513;BME280;27244;59.940;30.280;2023-04-26T01:48:56;100390.28;;;25.32;25.75
41513;BME280;27244;59.940;30.280;2023-04-26T01:51:23;100391.50;;;25.31;25.96
41513;BME280;27244;59.940;30.280;2023-04-26T01:53:50;100388.69;;;25.31;25.79
41513;BME280;27244;59.940;30.280;2023-04-26T01:56:17;100385.88;;;25.31;25.74
41513;BME280;27244;59.940;30.280;2023-04-26T01:58:46;100365.16;;;25.25;25.63
41513;BME280;27244;59.940;30.280;2023-04-26T02:01:13;100373.78;;;25.30;25.61
41513;BME280;27244;59.940;30.280;2023-04-26T02:03:39;100369.84;;;25.28;25.63
41513;BME280;27244;59.940;30.280;2023-04-26T02:06:06;100375.16;;;25.26;25.73
41513;BME280;27244;59.940;30.280;2023-04-26T02:08:34;100375.03;;;25.29;25.71
41513;BME280;27244;59.940;30.280;2023-04-26T02:11:01;100364.53;;;25.30;25.84
41513;BME280;27244;59.940;30.280;2023-04-26T02:13:28;100372.69;;;25.28;25.38
41513;BME280;27244;59.940;30.280;2023-04-26T02:15:57;100374.88;;;25.33;25.47
41513;BME280;27244;59.940;30.280;2023-04-26T02:18:24;100378.97;;;25.32;25.68
41513;BME280;27244;59.940;30.280;2023-04-26T02:20:51;100376.16;;;25.32;25.38
41513;BME280;27244;59.940;30.280;2023-04-26T02:23:18;100376.16;;;25.32;25.92
41513;BME280;27244;59.940;30.280;2023-04-26T02:25:45;100376.28;;;25.28;26.00
41513;BME280;27244;59.940;30.280;2023-04-26T02:28:13;100383.84;;;25.31;25.73
41513;BME280;27244;59.940;30.280;2023-04-26T02:30:40;100380.53;;;25.33;25.98
41513;BME280;27244;59.940;30.280;2023-04-26T02:33:09;100384.94;;;25.34;25.76
41513;BME280;27244;59.940;30.280;2023-04-26T02:35:36;100378.19;;;25.31;25.87
41513;BME280;27244;59.940;30.280;2023-04-26T02:38:04;100375.34;;;25.31;25.75
41513;BME280;27244;59.940;30.280;2023-04-26T02:40:31;100375.34;;;25.31;25.96
41513;BME280;27244;59.940;30.280;2023-04-26T02:42:58;100366.09;;;25.31;25.65
41513;BME280;27244;59.940;30.280;2023-04-26T02:45:25;100368.44;;;25.32;25.95
41513;BME280;27244;59.940;30.280;2023-04-26T02:47:52;100378.97;;;25.32;25.93
41513;BME280;27244;59.940;30.280;2023-04-26T02:50:20;100365.75;;;25.29;25.66
41513;BME280;27244;59.940;30.280;2023-04-26T02:52:48;100369.38;;;25.29;25.72
41513;BME280;27244;59.940;30.280;2023-04-26T02:55:16;100375.03;;;25.29;25.74
41513;BME280;27244;59.940;30.280;2023-04-26T02:57:42;100365.75;;;25.29;25.57
41513;BME280;27244;59.940;30.280;2023-04-26T03:00:10;100369.84;;;25.28;25.73
41513;BME280;27244;59.940;30.280;2023-04-26T03:02:39;100375.03;;;25.29;25.74
41513;BME280;27244;59.940;30.280;2023-04-26T03:05:07;100376.28;;;25.28;25.78
41513;BME280;27244;59.940;30.280;2023-04-26T03:07:36;100376.28;;;25.28;25.40
41513;BME280;27244;59.940;30.280;2023-04-26T03:10:04;100372.69;;;25.28;25.55
41513;BME280;27244;59.940;30.280;2023-04-26T03:12:32;100369.84;;;25.28;25.44
41513;BME280;27244;59.940;30.280;2023-04-26T03:15:00;100357.91;;;25.24;25.38
41513;BME280;27244;59.940;30.280;2023-04-26T03:17:29;100361.03;;;25.26;25.27
41513;BME280;27244;59.940;30.280;2023-04-26T03:19:56;100358.22;;;25.26;25.63
41513;BME280;27244;59.940;30.280;2023-04-26T03:22:23;100362.31;;;25.25;25.33
41513;BME280;27244;59.940;30.280;2023-04-26T03:24:51;100362.31;;;25.25;25.38
41513;BME280;27244;59.940;30.280;2023-04-26T03:27:18;100355.88;;;25.24;25.31
41513;BME280;27244;59.940;30.280;2023-04-26T03:29:46;100356.34;;;25.23;25.20
41513;BME280;27244;59.940;30.280;2023-04-26T03:32:13;100359.50;;;25.25;25.46
41513;BME280;27244;59.940;30.280;2023-04-26T03:34:40;100350.69;;;25.23;25.18
41513;BME280;27244;59.940;30.280;2023-04-26T03:37:07;100347.41;;;25.24;25.24
41513;BME280;27244;59.940;30.280;2023-04-26T03:39:35;100345.84;;;25.23;25.39
41513;BME280;27244;59.940;30.280;2023-04-26T03:42:04;100347.41;;;25.24;25.13
41513;BME280;27244;59.940;30.280;2023-04-26T03:44:32;100343.81;;;25.24;25.37
41513;BME280;27244;59.940;30.280;2023-04-26T03:46:59;100347.41;;;25.24;25.51
41513;BME280;27244;59.940;30.280;2023-04-26T03:49:27;100347.22;;;25.19;25.21
41513;BME280;27244;59.940;30.280;2023-04-26T03:51:54;100345.19;;;25.19;25.07
41513;BME280;27244;59.940;30.280;2023-04-26T03:54:21;100343.16;;;25.20;25.09
41513;BME280;27244;59.940;30.280;2023-04-26T03:56:48;100346.28;;;25.22;25.31
41513;BME280;27244;59.940;30.280;2023-04-26T03:59:17;100338.59;;;25.22;25.18
41513;BME280;27244;59.940;30.280;2023-04-26T04:01:44;100332.81;;;25.17;25.09
41513;BME280;27244;59.940;30.280;2023-04-26T04:04:11;100340.34;;;25.20;25.33
41513;BME280;27244;59.940;30.280;2023-04-26T04:06:39;100336.25;;;25.21;25.19
41513;BME280;27244;59.940;30.280;2023-04-26T04:09:06;100338.31;;;25.20;25.07
41513;BME280;27244;59.940;30.280;2023-04-26T04:11:33;100333.44;;;25.21;25.16
41513;BME280;27244;59.940;30.280;2023-04-26T04:14:01;100335.47;;;25.20;25.24
41513;BME280;27244;59.940;30.280;2023-04-26T04:16:29;100335.00;;;25.22;25.13
41513;BME280;27244;59.940;30.280;2023-04-26T04:18:56;100336.25;;;25.21;25.37
41513;BME280;27244;59.940;30.280;2023-04-26T04:21:23;100331.88;;;25.20;24.94
41513;BME280;27244;59.940;30.280;2023-04-26T04:23:52;100335.94;;;25.19;25.28
41513;BME280;27244;59.940;30.280;2023-04-26T04:26:19;100329.50;;;25.18;25.23
41513;BME280;27244;59.940;30.280;2023-04-26T04:28:46;100333.09;;;25.19;25.33
41513;BME280;27244;59.940;30.280;2023-04-26T04:31:14;100333.09;;;25.19;25.33
41513;BME280;27244;59.940;30.280;2023-04-26T04:33:43;100331.06;;;25.19;25.08
41513;BME280;27244;59.940;30.280;2023-04-26T04:36:11;100324.63;;;25.19;25.37
41513;BME280;27244;59.940;30.280;2023-04-26T04:38:41;100330.28;;;25.19;25.28
41513;BME280;27244;59.940;30.280;2023-04-26T04:41:09;100330.78;;;25.17;25.41
41513;BME280;27244;59.940;30.280;2023-04-26T04:43:37;100320.06;;;25.12;25.21
41513;BME280;27244;59.940;30.280;2023-04-26T04:46:05;100327.16;;;25.17;25.32
41513;BME280;27244;59.940;30.280;2023-04-26T04:48:32;100326.38;;;25.16;25.20
41513;BME280;27244;59.940;30.280;2023-04-26T04:51:01;100327.16;;;25.17;25.15
41513;BME280;27244;59.940;30.280;2023-04-26T04:53:28;100325.25;;;25.14;25.30
41513;BME280;27244;59.940;30.280;2023-04-26T04:55:55;100336.56;;;25.14;25.24
41513;BME280;27244;59.940;30.280;2023-04-26T04:58:22;100323.34;;;25.11;25.40
41513;BME280;27244;59.940;30.280;2023-04-26T05:00:50;100331.34;;;25.12;25.31
41513;BME280;27244;59.940;30.280;2023-04-26T05:03:23;100327.75;;;25.12;25.30
41513;BME280;27244;59.940;30.280;2023-04-26T05:05:51;100331.34;;;25.12;25.41
41513;BME280;27244;59.940;30.280;2023-04-26T05:08:19;100332.94;;;25.13;25.37
41513;BME280;27244;59.940;30.280;2023-04-26T05:10:47;100334.97;;;25.13;25.33
41513;BME280;27244;59.940;30.280;2023-04-26T05:13:14;100329.78;;;25.11;25.31
41513;BME280;27244;59.940;30.280;2023-04-26T05:15:41;100331.50;;;25.09;25.59
41513;BME280;27244;59.940;30.280;2023-04-26T05:18:09;100335.56;;;25.08;25.18
41513;BME280;27244;59.940;30.280;2023-04-26T05:20:36;100329.28;;;25.04;25.56
41513;BME280;27244;59.940;30.280;2023-04-26T05:23:03;100329.63;;;25.06;25.50
41513;BME280;27244;59.940;30.280;2023-04-26T05:25:36;100337.31;;;25.14;25.54
41513;BME280;27244;59.940;30.280;2023-04-26T05:28:16;100343.09;;;25.11;25.61
41513;BME280;27244;59.940;30.280;2023-04-26T05:31:01;100333.88;;;25.10;25.54
41513;BME280;27244;59.940;30.280;2023-04-26T05:33:47;100333.38;;;25.12;25.55
41513;BME280;27244;59.940;30.280;2023-04-26T05:36:17;100329.78;;;25.11;25.41
41513;BME280;27244;59.940;30.280;2023-04-26T05:38:44;100326.97;;;25.11;25.68
41513;BME280;27244;59.940;30.280;2023-04-26T05:41:14;100328.53;;;25.12;25.48
41513;BME280;27244;59.940;30.280;2023-04-26T05:43:41;100334.63;;;25.11;25.63
41513;BME280;27244;59.940;30.280;2023-04-26T05:46:08;100328.22;;;25.10;25.67
41513;BME280;27244;59.940;30.280;2023-04-26T05:48:35;100329.78;;;25.11;25.80
41513;BME280;27244;59.940;30.280;2023-04-26T05:51:02;100327.75;;;25.12;25.59
41513;BME280;27244;59.940;30.280;2023-04-26T05:53:29;100331.34;;;25.12;25.53
41513;BME280;27244;59.940;30.280;2023-04-26T05:55:58;100324.94;;;25.12;25.75
41513;BME280;27244;59.940;30.280;2023-04-26T05:58:26;100320.88;;;25.13;25.71
41513;BME280;27244;59.940;30.280;2023-04-26T06:00:54;100324.47;;;25.13;26.02
41513;BME280;27244;59.940;30.280;2023-04-26T06:03:21;100317.53;;;25.05;26.17
41513;BME280;27244;59.940;30.280;2023-04-26T06:05:48;100323.19;;;25.14;26.01
41513;BME280;27244;59.940;30.280;2023-04-26T06:08:15;100318.84;;;25.13;25.93
41513;BME280;27244;59.940;30.280;2023-04-26T06:10:42;100307.69;;;25.10;26.33
41513;BME280;27244;59.940;30.280;2023-04-26T06:13:11;100318.84;;;25.13;25.92
41513;BME280;27244;59.940;30.280;2023-04-26T06:15:41;100308.63;;;25.07;26.38
41513;BME280;27244;59.940;30.280;2023-04-26T06:18:09;100316.00;;;25.13;26.24
41513;BME280;27244;59.940;30.280;2023-04-26T06:20:36;100319.13;;;25.15;26.23
41513;BME280;27244;59.940;30.280;2023-04-26T06:23:05;100314.28;;;25.16;26.53
41513;BME280;27244;59.940;30.280;2023-04-26T06:25:32;100312.41;;;25.13;26.31
41513;BME280;27244;59.940;30.280;2023-04-26T06:27:59;100314.28;;;25.16;26.70
41513;BME280;27244;59.940;30.280;2023-04-26T06:30:28;100303.78;;;25.16;26.77
41513;BME280;27244;59.940;30.280;2023-04-26T06:32:57;100312.25;;;25.16;26.53
41513;BME280;27244;59.940;30.280;2023-04-26T06:35:25;100315.88;;;25.17;26.71
41513;BME280;27244;59.940;30.280;2023-04-26T06:37:52;100315.88;;;25.17;26.65
41513;BME280;27244;59.940;30.280;2023-04-26T06:40:19;100313.84;;;25.17;26.30
41513;BME280;27244;59.940;30.280;2023-04-26T06:42:47;100316.66;;;25.17;26.63
41513;BME280;27244;59.940;30.280;2023-04-26T06:45:35;100303.13;;;25.12;26.91
41513;BME280;27244;59.940;30.280;2023-04-26T06:48:04;100312.56;;;25.18;26.85
41513;BME280;27244;59.940;30.280;2023-04-26T06:50:32;100311.75;;;25.18;27.91
41513;BME280;27244;59.940;30.280;2023-04-26T06:52:59;100313.69;;;25.21;28.19
41513;BME280;27244;59.940;30.280;2023-04-26T06:55:26;100315.22;;;25.22;29.78
41513;BME280;27244;59.940;30.280;2023-04-26T06:57:53;100316.81;;;25.23;29.15
41513;BME280;27244;59.940;30.280;2023-04-26T07:00:21;100315.72;;;25.20;28.96
41513;BME280;27244;59.940;30.280;2023-04-26T07:02:48;100312.41;;;25.22;29.10
41513;BME280;27244;59.940;30.280;2023-04-26T07:05:17;100320.44;;;25.23;28.47
41513;BME280;27244;59.940;30.280;2023-04-26T07:07:44;100310.38;;;25.22;28.54
41513;BME280;27244;59.940;30.280;2023-04-26T07:10:12;100311.50;;;25.25;28.80
41513;BME280;27244;59.940;30.280;2023-04-26T07:12:39;100319.97;;;25.25;28.96
41513;BME280;27244;59.940;30.280;2023-04-26T07:15:09;100317.16;;;25.25;28.62
41513;BME280;27244;59.940;30.280;2023-04-26T07:17:36;100311.50;;;25.25;29.03
41513;BME280;27244;59.940;30.280;2023-04-26T07:20:03;100314.00;;;25.23;29.01
41513;BME280;27244;59.940;30.280;2023-04-26T07:22:32;100313.06;;;25.26;29.30
41513;BME280;27244;59.940;30.280;2023-04-26T07:24:59;100310.56;;;25.28;29.51
41513;BME280;27244;59.940;30.280;2023-04-26T07:27:26;100316.53;;;25.30;29.35
41513;BME280;27244;59.940;30.280;2023-04-26T07:29:53;100307.41;;;25.26;29.69
41513;BME280;27244;59.940;30.280;2023-04-26T07:32:21;100305.72;;;25.28;29.81
41513;BME280;27244;59.940;30.280;2023-04-26T07:34:48;100311.66;;;25.30;29.85
41513;BME280;27244;59.940;30.280;2023-04-26T07:37:15;100308.06;;;25.30;30.12
41513;BME280;27244;59.940;30.280;2023-04-26T07:39:43;100311.22;;;25.32;30.23
41513;BME280;27244;59.940;30.280;2023-04-26T07:42:10;100307.91;;;25.33;30.06
41513;BME280;27244;59.940;30.280;2023-04-26T07:44:37;100310.44;;;25.31;29.95
41513;BME280;27244;59.940;30.280;2023-04-26T07:47:04;100301.47;;;25.33;29.87
41513;BME280;27244;59.940;30.280;2023-04-26T07:49:31;100302.59;;;25.35;30.16
41513;BME280;27244;59.940;30.280;2023-04-26T07:51:58;100301.47;;;25.33;30.17
41513;BME280;27244;59.940;30.280;2023-04-26T07:54:26;100302.25;;;25.33;30.05
41513;BME280;27244;59.940;30.280;2023-04-26T07:56:55;100304.94;;;25.37;30.25
41513;BME280;27244;59.940;30.280;2023-04-26T07:59:22;100313.88;;;25.35;30.37
41513;BME280;27244;59.940;30.280;2023-04-26T08:01:49;100299.78;;;25.35;29.64
41513;BME280;27244;59.940;30.280;2023-04-26T08:04:17;100304.94;;;25.37;29.76
41513;BME280;27244;59.940;30.280;2023-04-26T08:06:45;100302.13;;;25.37;29.43
41513;BME280;27244;59.940;30.280;2023-04-26T08:09:13;100304.94;;;25.37;29.72
41513;BME280;27244;59.940;30.280;2023-04-26T08:11:40;100306.19;;;25.36;30.23
41513;BME280;27244;59.940;30.280;2023-04-26T08:14:08;100294.88;;;25.36;30.12
41513;BME280;27244;59.940;30.280;2023-04-26T08:16:36;100304.47;;;25.38;29.77
41513;BME280;27244;59.940;30.280;2023-04-26T08:19:03;100300.88;;;25.38;29.54
41513;BME280;27244;59.940;30.280;2023-04-26T08:21:30;100300.88;;;25.38;29.80
41513;BME280;27244;59.940;30.280;2023-04-26T08:23:57;100300.88;;;25.38;29.96
41513;BME280;27244;59.940;30.280;2023-04-26T08:26:24;100293.97;;;25.39;29.60
41513;BME280;27244;59.940;30.280;2023-04-26T08:28:51;100293.97;;;25.39;29.72
41513;BME280;27244;59.940;30.280;2023-04-26T08:31:20;100298.34;;;25.40;30.19
41513;BME280;27244;59.940;30.280;2023-04-26T08:33:47;100288.34;;;25.39;29.85
41513;BME280;27244;59.940;30.280;2023-04-26T08:36:14;100279.06;;;25.38;29.86
41513;BME280;27244;59.940;30.280;2023-04-26T08:38:41;100290.38;;;25.38;30.09
41513;BME280;27244;59.940;30.280;2023-04-26T08:41:11;100293.03;;;25.42;30.18
41513;BME280;27244;59.940;30.280;2023-04-26T08:43:39;100285.81;;;25.41;30.02
41513;BME280;27244;59.940;30.280;2023-04-26T08:46:09;100281.41;;;25.40;30.33
41513;BME280;27244;59.940;30.280;2023-04-26T08:48:39;100288.97;;;25.43;30.31
41513;BME280;27244;59.940;30.280;2023-04-26T08:51:06;100280.16;;;25.41;29.92
41513;BME280;27244;59.940;30.280;2023-04-26T08:53:36;100281.75;;;25.42;30.14
41513;BME280;27244;59.940;30.280;2023-04-26T08:56:05;100281.75;;;25.42;30.28
41513;BME280;27244;59.940;30.280;2023-04-26T08:58:34;100281.75;;;25.42;30.28
41513;BME280;27244;59.940;30.280;2023-04-26T09:01:01;100279.22;;;25.44;30.14
41513;BME280;27244;59.940;30.280;2023-04-26T09:03:29;100274.84;;;25.43;30.46
41513;BME280;27244;59.940;30.280;2023-04-26T09:05:58;100255.50;;;25.32;30.16
41513;BME280;27244;59.940;30.280;2023-04-26T09:08:25;100271.25;;;25.42;30.43
41513;BME280;27244;59.940;30.280;2023-04-26T09:10:53;100273.13;;;25.45;30.59
41513;BME280;27244;59.940;30.280;2023-04-26T09:13:27;100258.84;;;25.49;30.44
41513;BME280;27244;59.940;30.280;2023-04-26T09:15:54;100262.91;;;25.48;30.31
41513;BME280;27244;59.940;30.280;2023-04-26T09:18:22;100261.81;;;25.45;30.65
41513;BME280;27244;59.940;30.280;2023-04-26T09:21:02;100255.41;;;25.54;30.43
41513;BME280;27244;59.940;30.280;2023-04-26T09:23:30;100257.28;;;25.48;30.43
41513;BME280;27244;59.940;30.280;2023-04-26T09:26:16;100249.00;;;25.54;30.21
41513;BME280;27244;59.940;30.280;2023-04-26T09:28:43;100259.63;;;25.50;30.43
41513;BME280;27244;59.940;30.280;2023-04-26T09:31:11;100251.16;;;25.50;30.70
41513;BME280;27244;59.940;30.280;2023-04-26T09:33:57;100238.47;;;25.54;30.47
41513;BME280;27244;59.940;30.280;2023-04-26T09:36:25;100242.69;;;25.50;30.80
41513;BME280;27244;59.940;30.280;2023-04-26T09:38:54;100238.16;;;25.52;30.40
41513;BME280;27244;59.940;30.280;2023-04-26T09:41:22;100237.50;;;25.48;30.79
41513;BME280;27244;59.940;30.280;2023-04-26T09:43:51;100243.03;;;25.52;30.81
41513;BME280;27244;59.940;30.280;2023-04-26T09:46:21;100237.22;;;25.55;30.59
41513;BME280;27244;59.940;30.280;2023-04-26T09:48:59;100239.09;;;25.58;30.42
41513;BME280;27244;59.940;30.280;2023-04-26T09:51:28;100232.19;;;25.50;30.69
41513;BME280;27244;59.940;30.280;2023-04-26T09:53:56;100230.13;;;25.51;30.99
41513;BME280;27244;59.940;30.280;2023-04-26T09:56:23;100236.91;;;25.53;30.93
41513;BME280;27244;59.940;30.280;2023-04-26T09:58:58;100238.31;;;25.58;30.64
41513;BME280;27244;59.940;30.280;2023-04-26T10:01:28;100225.13;;;25.55;30.71
41513;BME280;27244;59.940;30.280;2023-04-26T10:03:55;100219.78;;;25.47;31.02
41513;BME280;27244;59.940;30.280;2023-04-26T10:06:22;100221.53;;;25.54;31.15
41513;BME280;27244;59.940;30.280;2023-04-26T10:08:51;100229.09;;;25.57;31.11
41513;BME280;27244;59.940;30.280;2023-04-26T10:11:19;100215.72;;;25.58;30.78
41513;BME280;27244;59.940;30.280;2023-04-26T10:13:49;100214.31;;;25.53;30.68
41513;BME280;27244;59.940;30.280;2023-04-26T10:16:16;100230.31;;;25.56;30.89
41513;BME280;27244;59.940;30.280;2023-04-26T10:18:43;100231.13;;;25.57;30.79
41513;BME280;27244;59.940;30.280;2023-04-26T10:21:14;100221.38;;;25.58;30.59
41513;BME280;27244;59.940;30.280;2023-04-26T10:23:43;100229.09;;;25.57;30.57
41513;BME280;27244;59.940;30.280;2023-04-26T10:29:11;100222.16;;;25.58;30.72
41513;BME280;27244;59.940;30.280;2023-04-26T10:32:04;100222.97;;;25.68;30.37
41513;BME280;27244;59.940;30.280;2023-04-26T10:34:32;100220.28;;;25.55;30.84
41513;BME280;27244;59.940;30.280;2023-04-26T10:37:07;100222.78;;;25.62;30.77
41513;BME280;27244;59.940;30.280;2023-04-26T10:39:35;100227.03;;;25.58;31.05
41513;BME280;27244;59.940;30.280;2023-04-26T10:42:19;100231.91;;;25.66;30.63
41513;BME280;27244;59.940;30.280;2023-04-26T10:44:51;100233.00;;;25.60;30.73
41513;BME280;27244;59.940;30.280;2023-04-26T10:47:23;100233.31;;;25.62;31.14
41513;BME280;27244;59.940;30.280;2023-04-26T10:49:50;100241.47;;;25.60;31.04
41513;BME280;27244;59.940;30.280;2023-04-26T10:52:18;100242.25;;;25.60;30.96
41513;BME280;27244;59.940;30.280;2023-04-26T10:54:52;100237.84;;;25.59;31.01
41513;BME280;27244;59.940;30.280;2023-04-26T10:57:20;100245.09;;;25.60;31.01
41513;BME280;27244;59.940;30.280;2023-04-26T11:03:09;100241.31;;;25.63;30.80
41513;BME280;27244;59.940;30.280;2023-04-26T11:05:53;100248.69;;;25.70;30.59
41513;BME280;27244;59.940;30.280;2023-04-26T11:08:23;100242.56;;;25.62;30.42
41513;BME280;27244;59.940;30.280;2023-04-26T11:10:57;100270.81;;;25.62;30.83
41513;BME280;27244;59.940;30.280;2023-04-26T11:13:24;100266.56;;;25.58;30.34
41513;BME280;27244;59.940;30.280;2023-04-26T11:15:52;100260.16;;;25.57;30.53
41513;BME280;27244;59.940;30.280;2023-04-26T11:18:21;100275.66;;;25.62;30.50
41513;BME280;27244;59.940;30.280;2023-04-26T11:20:48;100284.63;;;25.60;30.43
41513;BME280;27244;59.940;30.280;2023-04-26T11:23:17;100280.22;;;25.59;30.46
41513;BME280;27244;59.940;30.280;2023-04-26T11:25:44;100298.75;;;25.60;30.50
41513;BME280;27244;59.940;30.280;2023-04-26T11:28:11;100305.19;;;25.61;30.15
41513;BME280;27244;59.940;30.280;2023-04-26T11:30:38;100280.53;;;25.61;30.41
41513;BME280;27244;59.940;30.280;2023-04-26T11:33:05;100266.41;;;25.61;30.34
41513;BME280;27244;59.940;30.280;2023-04-26T11:35:34;100257.81;;;25.65;30.51
41513;BME280;27244;59.940;30.280;2023-04-26T11:38:03;100252.16;;;25.65;30.37
41513;BME280;27244;59.940;30.280;2023-04-26T11:40:31;100248.53;;;25.64;30.54
41513;BME280;27244;59.940;30.280;2023-04-26T11:43:01;100238.50;;;25.63;30.36
41513;BME280;27244;59.940;30.280;2023-04-26T11:45:29;100240.06;;;25.64;30.68
41513;BME280;27244;59.940;30.280;2023-04-26T11:47:57;100233.16;;;25.65;30.75
41513;BME280;27244;59.940;30.280;2023-04-26T11:50:24;100247.28;;;25.65;30.19
41513;BME280;27244;59.940;30.280;2023-04-26T11:52:58;100250.72;;;25.69;29.98
41513;BME280;27244;59.940;30.280;2023-04-26T11:55:28;100251.66;;;25.66;30.08
41513;BME280;27244;59.940;30.280;2023-04-26T11:57:56;100244.13;;;25.63;29.76
41513;BME280;27244;59.940;30.280;2023-04-26T12:00:24;100243.34;;;25.63;29.62
41513;BME280;27244;59.940;30.280;2023-04-26T12:02:52;100237.41;;;25.61;29.52
41513;BME280;27244;59.940;30.280;2023-04-26T12:05:20;100235.34;;;25.61;29.41
41513;BME280;27244;59.940;30.280;2023-04-26T12:07:51;100234.88;;;25.63;29.52
41513;BME280;27244;59.940;30.280;2023-04-26T12:10:23;100235.66;;;25.63;29.18
41513;BME280;27244;59.940;30.280;2023-04-26T12:12:52;100230.97;;;25.60;29.09
41513;BME280;27244;59.940;30.280;2023-04-26T12:15:22;100224.97;;;25.58;29.33
41513;BME280;27244;59.940;30.280;2023-04-26T12:17:53;100231.25;;;25.62;28.87
41513;BME280;27244;59.940;30.280;2023-04-26T12:20:28;100230.81;;;25.64;28.75
41513;BME280;27244;59.940;30.280;2023-04-26T12:23:00;100238.16;;;25.61;28.76
41513;BME280;27244;59.940;30.280;2023-04-26T12:25:30;100230.31;;;25.56;28.76
41513;BME280;27244;59.940;30.280;2023-04-26T12:27:57;100230.31;;;25.56;28.52
41513;BME280;27244;59.940;30.280;2023-04-26T12:30:26;100232.38;;;25.56;28.48
41513;BME280;27244;59.940;30.280;2023-04-26T12:33:02;100230.31;;;25.56;28.34
41513;BME280;27244;59.940;30.280;2023-04-26T12:35:29;100225.47;;;25.57;28.25
41513;BME280;27244;59.940;30.280;2023-04-26T12:37:56;100230.47;;;25.53;28.58
41513;BME280;27244;59.940;30.280;2023-04-26T12:40:25;100235.97;;;25.56;28.15
41513;BME280;27244;59.940;30.280;2023-04-26T12:42:54;100233.16;;;25.56;28.00
41513;BME280;27244;59.940;30.280;2023-04-26T12:45:22;100229.25;;;25.54;28.20
41513;BME280;27244;59.940;30.280;2023-04-26T12:47:50;100228.75;;;25.55;27.95
41513;BME280;27244;59.940;30.280;2023-04-26T12:50:17;100229.25;;;25.54;27.99
41513;BME280;27244;59.940;30.280;2023-04-26T12:52:44;100225.63;;;25.53;27.87
41513;BME280;27244;59.940;30.280;2023-04-26T12:55:12;100227.16;;;25.54;27.84